Saint Edward, Nebraska
Current Conditions -  °F | °C
As of 8:35 AM on Tuesday 21 Oct 2014 (Local Time) from KBVN Reporting Station
Clear Clear  
Wind Chill: 39°   Ceiling: Unl
Heat Index: 39°   Visibility: 10mi
Dew Point: 35°   Wind: 3mph
Humidity: 84%   Direction: 130°SE
Pressure: 30.08"   Gusts: NA
Location:  41.57°N, 97.87°W
Report Text: KBVN 211335Z AUTO 13003KT 10SM CLR 04/02 A3008 RMK AO2 T00400015
Loading
Personal Weather Stations






























Interactive Weather Map
Tropical Storm Tracking
New forecast layout! Learn more

10-Day Weather Forecast

Advertisements
Track Severe Weather on mobile